CW9119 Weather Reports


Display with metric or nautical units.
time (UTC)temp
F
wind
direction
speed
MPH
gust
MPH
rain 1hr
in
rain 24hr
in
rain mn
in
humidity
%
barometer
mb
20180718002114 61 326 1.0 7.0 0.00 0.00 0.00 87 1011.0
20180718001114 62 297 1.0 6.0 0.00 0.00 0.00 86 1011.3
20180718000114 62 306 2.0 8.0 0.00 0.00 0.00 86 1011.2
20180717235114 62 327 3.0 11.0 0.00 0.00 0.00 86 1010.9
20180717233114 62 315 1.0 7.0 0.00 0.00 0.00 85 1010.9
20180717231114 62 284 1.0 8.0 0.00 0.00 0.00 85 1011.0
20180717224114 62 292 1.0 7.0 0.00 0.00 0.00 83 1010.7
20180717222114 63 260 1.0 8.0 0.00 0.00 0.00 81 1010.7
20180717221114 63 268 1.0 6.0 0.00 0.00 0.00 80 1010.6
20180717220114 63 33 3.0 8.0 0.00 0.00 0.00 80 1010.8
20180717215114 63 5 1.0 6.0 0.00 0.00 0.00 80 1010.8
20180717214114 63 22 4.0 17.0 0.00 0.00 0.00 80 1010.7
20180717213114 63 355 3.0 7.0 0.00 0.00 0.00 81 1010.7
20180717212114 63 42 2.0 8.0 0.00 0.00 0.00 82 1010.5
20180717203114 63 302 2.0 14.0 0.00 0.00 0.00 80 1010.8
20180717200114 62 291 3.0 11.0 0.00 0.00 0.00 83 1010.7
20180717195114 62 52 3.0 10.0 0.00 0.00 0.00 83 1010.6
20180717194114 62 288 5.0 11.0 0.00 0.00 0.00 84 1010.7
20180717193114 62 320 4.0 14.0 0.00 0.00 0.00 83 1010.8
20180717192114 63 36 5.0 17.0 0.00 0.00 0.00 82 1010.8
20180717191114 63 332 7.0 23.0 0.00 0.00 0.00 81 1010.5
20180717183113 64 302 4.0 14.0 0.00 0.00 0.00 76 1010.4
20180717180114 65 360 4.0 8.0 0.00 0.00 0.00 74 1010.6
20180717175114 65 5 7.0 17.0 0.00 0.00 0.00 74 1010.5
20180717172114 64 81 3.0 11.0 0.00 0.00 0.00 74 1010.6
20180717171114 65 37 3.0 11.0 0.00 0.00 0.00 71 1010.7
20180717170114 66 26 7.0 26.0 0.00 0.00 0.00 68 1010.6
20180717165113 66 11 3.0 8.0 0.00 0.00 0.00 66 1010.6
20180717163114 66 40 4.0 10.0 0.00 0.00 0.00 66 1010.4
20180717160113 67 360 3.0 8.0 0.00 0.00 0.00 70 1010.3
20180717155113 67 49 3.0 11.0 0.00 0.00 0.00 71 1010.1
20180717151113 69 54 3.0 11.0 0.00 0.00 0.00 64 1010.4
20180717144113 71 322 2.0 10.0 0.00 0.00 0.00 58 1009.8
20180717143114 71 317 4.0 16.0 0.00 0.00 0.00 58 1009.8
20180717142113 71 46 4.0 13.0 0.00 0.00 0.00 58 1009.8
20180717141114 71 12 4.0 11.0 0.00 0.00 0.00 57 1009.9
20180717134114 71 297 3.0 10.0 0.00 0.00 0.00 58 1010.3
20180717132114 71 296 6.0 20.0 0.00 0.00 0.00 56 1010.2
20180717124113 70 298 5.0 16.0 0.00 0.00 0.00 53 1010.6
20180717123114 70 360 6.0 19.0 0.00 0.00 0.00 53 1010.7
20180717121113 70 280 4.0 14.0 0.00 0.00 0.00 54 1010.6
20180717115113 69 339 2.0 13.0 0.00 0.00 0.00 59 1010.7
20180717111113 68 346 4.0 11.0 0.00 0.00 0.00 62 1010.9
20180717110113 69 236 5.0 17.0 0.00 0.00 0.00 66 1011.0
20180717103113 67 315 3.0 13.0 0.00 0.00 0.00 75 1011.1
20180717102113 65 255 3.0 11.0 0.00 0.00 0.00 78 1011.0
20180717093113 63 32 1.0 4.0 0.00 0.00 0.00 82 1010.9
20180717092113 62 5 0.0 2.0 0.00 0.00 0.00 85 1010.9
20180717091113 61 340 4.0 10.0 0.00 0.00 0.00 84 1010.7
20180717081113 63 297 2.0 8.0 0.00 0.00 0.00 81 1010.6
20180717080114 62 295 3.0 11.0 0.00 0.00 0.00 80 1010.6
20180717075113 63 297 6.0 17.0 0.00 0.00 0.00 81 1010.5
20180717074115 62 101 4.0 12.0 0.00 0.00 0.00 81 1010.5
20180717072113 62 30 1.0 7.0 0.00 0.00 0.00 82 1010.5
20180717065113 62 333 1.0 5.0 0.00 0.00 0.00 83 1010.7
20180717064113 61 34 1.0 6.0 0.00 0.00 0.00 84 1010.8
20180717062113 61 329 1.0 6.0 0.00 0.00 0.00 84 1010.9
20180717054113 60 280 3.0 10.0 0.00 0.00 0.00 85 1011.1
20180717050113 60 286 1.0 5.0 0.00 0.00 0.00 85 1011.3
20180717045113 58 280 0.0 5.0 0.00 0.00 0.00 86 1011.0
20180717043113 57 278 0.0 0.0 0.00 0.00 0.00 88 1010.8
20180717040113 56 278 0.0 0.0 0.00 0.00 0.00 87 1010.8
20180717035113 56 278 0.0 0.0 0.00 0.00 0.00 88 1010.8
20180717032113 55 278 0.0 0.0 0.00 0.00 0.00 88 1010.6
20180717023113 54 278 0.0 0.0 0.00 0.00 0.00 90 1010.4
20180717022113 54 278 0.0 0.0 0.00 0.00 0.00 89 1010.5
20180717021113 54 278 0.0 0.0 0.00 0.00 0.00 89 1010.4
20180717015113 54 278 0.0 0.0 0.00 0.00 0.00 89 1010.6